Time;durP1;ratioP1;P1;durP2;ratioP2;P2;SDS_P1;SDS_P2;PMS_P1;PMS_P2;Temp;Humidity;BMP_temperature;BMP_pressure;BME280_temperature;BME280_humidity;BME280_pressure;Samples;Min_cycle;Max_cycle;Signal;HPM_P1;HPM_P2
2023/02/25 00:01:36;;;;;;;9.17;1.23;;;;;;;3.23;100.00;98777.19;4954903;28;20179;-79
2023/02/25 00:04:02;;;;;;;33.50;3.23;;;;;;;3.26;100.00;98780.06;4954652;28;20198;-77
2023/02/25 00:06:28;;;;;;;14.30;2.13;;;;;;;3.28;100.00;98775.16;4954625;28;20182;-79
2023/02/25 00:08:54;;;;;;;9.60;1.47;;;;;;;3.32;100.00;98780.75;4954624;28;20206;-78
2023/02/25 00:11:21;;;;;;;4.70;1.47;;;;;;;3.32;100.00;98763.75;4954691;28;20178;-77
2023/02/25 00:13:47;;;;;;;12.73;3.10;;;;;;;3.31;100.00;98776.44;4954629;28;20206;-80
2023/02/25 00:16:13;;;;;;;3.93;1.23;;;;;;;3.30;100.00;98774.84;4953875;28;20270;-79
2023/02/25 00:18:45;;;;;;;2.57;0.97;;;;;;;3.32;100.00;98779.94;4954546;28;20174;-77
2023/02/25 00:21:15;;;;;;;10.93;2.87;;;;;;;3.31;100.00;98783.75;4954506;28;20182;-76
2023/02/25 00:23:42;;;;;;;3.83;1.37;;;;;;;3.29;100.00;98786.75;4954579;28;20249;-78
2023/02/25 00:26:07;;;;;;;0.40;0.40;;;;;;;3.29;100.00;98781.34;4954370;28;20182;-79
2023/02/25 00:28:34;;;;;;;11.87;1.43;;;;;;;3.27;100.00;98788.97;4954307;28;20171;-74
2023/02/25 00:31:05;;;;;;;9.73;2.03;;;;;;;3.29;100.00;98786.75;4954295;28;20262;-80
2023/02/25 00:33:30;;;;;;;4.87;1.17;;;;;;;3.33;100.00;98798.56;4954259;28;20186;-76
2023/02/25 00:35:56;;;;;;;11.43;2.27;;;;;;;3.33;100.00;98795.03;4952718;28;20186;-80
2023/02/25 00:38:21;;;;;;;3.80;1.90;;;;;;;3.34;100.00;98789.34;4954210;28;20678;-75
2023/02/25 00:40:46;;;;;;;5.83;1.73;;;;;;;3.35;100.00;98803.66;4954202;28;20204;-78
2023/02/25 00:43:12;;;;;;;19.53;1.93;;;;;;;3.35;100.00;98796.34;4954040;28;20198;-73
2023/02/25 00:45:39;;;;;;;6.10;2.27;;;;;;;3.37;100.00;98796.03;4953959;28;20174;-75
2023/02/25 00:48:04;;;;;;;0.93;0.60;;;;;;;3.38;100.00;98790.34;4954020;28;20788;-77
2023/02/25 00:50:29;;;;;;;9.97;1.50;;;;;;;3.38;100.00;98790.34;4953882;29;20187;-76
2023/02/25 00:52:55;;;;;;;2.03;1.87;;;;;;;3.38;100.00;98781.44;4953893;29;20174;-80
2023/02/25 00:55:20;;;;;;;8.33;1.33;;;;;;;3.38;100.00;98787.63;4953805;28;20194;-78
2023/02/25 00:57:46;;;;;;;14.43;2.00;;;;;;;3.37;100.00;98793.34;4953738;28;20178;-80
2023/02/25 01:00:15;;;;;;;5.20;0.73;;;;;;;3.34;100.00;98800.16;4953783;28;20257;-80
2023/02/25 01:02:41;;;;;;;15.50;1.70;;;;;;;3.38;100.00;98803.03;4953722;28;20174;-74
2023/02/25 01:05:07;;;;;;;7.20;2.53;;;;;;;3.35;100.00;98796.34;4953595;28;20425;-74
2023/02/25 01:07:33;;;;;;;3.30;1.13;;;;;;;3.36;100.00;98799.84;4953713;28;20209;-77
2023/02/25 01:09:59;;;;;;;6.93;1.20;;;;;;;3.36;100.00;98797.94;4953618;28;20228;-78
2023/02/25 01:12:24;;;;;;;5.70;1.17;;;;;;;3.36;100.00;98810.63;4953515;28;20179;-79
2023/02/25 01:14:49;;;;;;;11.17;1.57;;;;;;;3.36;100.00;98816.03;4953417;28;20213;-73
2023/02/25 01:17:15;;;;;;;2.10;1.00;;;;;;;3.36;100.00;98819.53;4953630;28;20178;-76
2023/02/25 01:19:40;;;;;;;3.27;1.17;;;;;;;3.34;100.00;98812.84;4953543;28;20189;-80
2023/02/25 01:22:06;;;;;;;7.03;1.50;;;;;;;3.25;100.00;98818.94;4953422;28;20178;-73
2023/02/25 01:24:33;;;;;;;1.43;0.30;;;;;;;3.21;100.00;98817.16;4953273;28;20726;-75
2023/02/25 01:27:01;;;;;;;5.60;2.23;;;;;;;3.18;100.00;98831.25;4952812;28;20245;-80
2023/02/25 01:29:29;;;;;;;1.83;1.00;;;;;;;3.10;100.00;98831.97;4953447;28;20225;-72
2023/02/25 01:31:57;;;;;;;0.20;0.00;;;;;;;3.08;100.00;98828.78;4952694;28;20572;-73
2023/02/25 01:34:24;;;;;;;10.00;1.10;;;;;;;3.04;100.00;98833.16;4956400;28;20174;-72
2023/02/25 01:36:49;;;;;;;1.03;0.40;;;;;;;3.00;100.00;98822.19;4955170;28;20239;-72
2023/02/25 01:39:17;;;;;;;16.23;1.33;;;;;;;2.99;100.00;98836.78;4953881;28;20178;-72
2023/02/25 01:41:45;;;;;;;0.83;0.60;;;;;;;3.01;100.00;98831.88;4951753;28;20184;-71
2023/02/25 01:44:14;;;;;;;2.00;0.73;;;;;;;2.98;100.00;98838.66;4952803;28;20214;-71
2023/02/25 01:46:41;;;;;;;2.33;0.50;;;;;;;2.98;100.00;98837.88;4953188;28;20174;-73
2023/02/25 01:49:44;;;;;;;6.03;1.50;;;;;;;2.98;100.00;98837.88;4951957;28;20178;-72
2023/02/25 01:52:16;;;;;;;0.60;0.20;;;;;;;2.94;100.00;98828.78;4912271;29;20175;-72
2023/02/25 01:54:44;;;;;;;7.90;2.97;;;;;;;2.94;100.00;98851.16;4946514;28;20325;-71
2023/02/25 01:57:12;;;;;;;0.93;0.70;;;;;;;2.93;100.00;98852.28;4952776;28;20174;-72
2023/02/25 01:59:39;;;;;;;3.33;1.23;;;;;;;2.90;100.00;98847.47;4952962;28;20171;-71
2023/02/25 02:02:07;;;;;;;10.33;1.23;;;;;;;2.86;100.00;98841.06;4952754;28;20192;-71
2023/02/25 02:04:32;;;;;;;10.20;1.40;;;;;;;2.86;100.00;98845.66;4952572;28;20213;-71
2023/02/25 02:06:58;;;;;;;4.93;1.10;;;;;;;2.86;100.00;98846.47;4952662;28;20666;-71
2023/02/25 02:09:27;;;;;;;0.93;0.93;;;;;;;2.85;100.00;98857.56;4952758;28;20541;-71
2023/02/25 02:11:55;;;;;;;30.30;1.53;;;;;;;2.84;100.00;98850.56;4952848;28;20552;-71
2023/02/25 02:14:26;;;;;;;3.47;1.07;;;;;;;2.84;100.00;98845.97;4952479;28;20170;-70
2023/02/25 02:16:54;;;;;;;1.90;1.60;;;;;;;2.84;100.00;98854.06;4952685;28;20175;-72
2023/02/25 02:19:48;;;;;;;1.43;1.23;;;;;;;2.84;100.00;98854.06;4952634;28;20669;-70
2023/02/25 02:22:39;;;;;;;14.40;1.27;;;;;;;2.87;100.00;98849.94;4952583;28;20179;-72
2023/02/25 02:25:23;;;;;;;2.27;1.83;;;;;;;2.87;100.00;98860.75;4952321;28;20202;-71
2023/02/25 02:28:39;;;;;;;2.20;1.73;;;;;;;2.88;100.00;98863.13;4952604;28;20186;-71
2023/02/25 02:31:25;;;;;;;1.03;0.50;;;;;;;2.89;100.00;98869.31;4952632;28;20197;-71
2023/02/25 02:34:07;;;;;;;0.37;0.37;;;;;;;2.89;100.00;98864.75;4952618;28;20194;-73
2023/02/25 02:36:59;;;;;;;3.70;0.90;;;;;;;2.91;100.00;98862.56;4952359;28;20555;-71
2023/02/25 02:39:24;;;;;;;2.30;1.00;;;;;;;2.90;100.00;98860.97;4955868;28;20189;-71
2023/02/25 02:42:01;;;;;;;7.90;1.73;;;;;;;2.91;100.00;98864.47;4956664;28;20210;-71
2023/02/25 02:44:34;;;;;;;1.57;1.30;;;;;;;2.92;100.00;98874.16;4956075;28;20285;-71
2023/02/25 02:47:05;;;;;;;10.10;1.50;;;;;;;2.91;100.00;98881.44;4956119;28;20190;-74
2023/02/25 02:49:42;;;;;;;6.77;2.07;;;;;;;2.90;100.00;98885.25;4956034;28;20833;-70
2023/02/25 02:52:14;;;;;;;1.07;0.87;;;;;;;2.86;100.00;98881.53;4956258;28;20671;-71
2023/02/25 02:54:42;;;;;;;10.83;1.70;;;;;;;2.85;100.00;98892.59;4974063;28;20185;-69
2023/02/25 02:57:11;;;;;;;3.23;1.00;;;;;;;2.84;100.00;98893.72;4975299;28;20182;-70
2023/02/25 02:59:42;;;;;;;2.17;1.27;;;;;;;2.82;100.00;98895.91;4975405;28;20777;-71
2023/02/25 03:02:16;;;;;;;14.13;2.00;;;;;;;2.78;100.00;98901.09;4975129;28;20186;-71
2023/02/25 03:04:43;;;;;;;1.23;0.60;;;;;;;2.78;100.00;98898.41;4975116;28;20236;-71
2023/02/25 03:07:11;;;;;;;6.40;1.50;;;;;;;2.78;100.00;98898.41;4975058;28;20232;-71
2023/02/25 03:09:48;;;;;;;3.03;0.50;;;;;;;2.78;100.00;98914.59;4975174;28;20178;-70
2023/02/25 03:12:14;;;;;;;0.10;0.10;;;;;;;2.77;100.00;98899.50;4974977;28;20232;-70
2023/02/25 03:14:40;;;;;;;2.83;1.23;;;;;;;2.78;100.00;98911.09;4975143;28;20245;-71
2023/02/25 03:17:23;;;;;;;0.83;0.83;;;;;;;2.78;100.00;98916.50;4974826;28;20186;-70
2023/02/25 03:20:17;;;;;;;1.13;1.03;;;;;;;2.76;100.00;98916.00;4975089;28;20249;-69
2023/02/25 03:22:45;;;;;;;0.83;0.57;;;;;;;2.73;100.00;98922.75;4974778;28;20182;-70
2023/02/25 03:25:22;;;;;;;0.73;0.30;;;;;;;2.72;100.00;98926.53;4974684;28;20261;-72
2023/02/25 03:27:51;;;;;;;1.37;1.27;;;;;;;2.74;100.00;98920.84;4974878;28;20566;-74
2023/02/25 03:30:23;;;;;;;1.80;0.77;;;;;;;2.72;100.00;98929.25;4974765;28;20184;-70
2023/02/25 03:32:55;;;;;;;5.77;1.30;;;;;;;2.71;100.00;98927.66;4973335;28;20185;-70
2023/02/25 03:35:22;;;;;;;1.37;0.37;;;;;;;2.71;100.00;98932.25;4974377;28;20277;-71
2023/02/25 03:37:51;;;;;;;0.00;0.00;;;;;;;2.73;100.00;98936.22;4974598;28;20198;-70
2023/02/25 03:40:18;;;;;;;0.13;0.13;;;;;;;2.73;100.00;98936.22;4974753;28;20229;-70
2023/02/25 03:42:49;;;;;;;0.10;0.10;;;;;;;2.76;100.00;98948.34;4974686;28;20181;-70
2023/02/25 03:45:15;;;;;;;1.40;1.17;;;;;;;2.74;100.00;98950.50;4974188;28;20170;-71
2023/02/25 03:47:42;;;;;;;3.50;0.60;;;;;;;2.75;100.00;98952.94;4974300;28;20671;-70
2023/02/25 03:50:17;;;;;;;0.73;0.43;;;;;;;2.74;100.00;98956.72;4973681;28;20166;-70
2023/02/25 03:52:43;;;;;;;0.00;0.00;;;;;;;2.73;100.00;98962.41;4974446;28;20228;-71
2023/02/25 03:55:10;;;;;;;2.83;0.53;;;;;;;2.73;100.00;98957.00;4974227;28;20178;-70
2023/02/25 03:57:40;;;;;;;0.80;0.57;;;;;;;2.74;100.00;98959.41;4974191;28;20223;-71
2023/02/25 04:00:16;;;;;;;0.20;0.20;;;;;;;2.76;100.00;98961.81;4974067;28;20658;-71
2023/02/25 04:02:43;;;;;;;0.40;0.23;;;;;;;2.76;100.00;98972.63;4974286;28;20232;-70
2023/02/25 04:05:09;;;;;;;0.00;0.00;;;;;;;2.74;100.00;98978.28;4973856;28;20177;-70
2023/02/25 04:07:35;;;;;;;2.70;1.27;;;;;;;2.77;100.00;98974.22;4973958;28;20706;-72
2023/02/25 04:10:01;;;;;;;0.43;0.13;;;;;;;2.79;100.00;98982.81;4973879;28;20277;-72
2023/02/25 04:12:26;;;;;;;0.23;0.23;;;;;;;2.79;100.00;98980.91;4973810;28;20241;-71
2023/02/25 04:14:51;;;;;;;4.03;1.60;;;;;;;2.77;100.00;98980.41;4973605;28;20178;-71
2023/02/25 04:17:18;;;;;;;0.63;0.40;;;;;;;2.77;100.00;98990.41;4973898;28;20174;-70
2023/02/25 04:19:43;;;;;;;0.23;0.23;;;;;;;2.77;100.00;98977.72;4973916;28;20713;-70
2023/02/25 04:22:08;;;;;;;0.47;0.47;;;;;;;2.75;100.00;98981.78;4973749;28;20181;-70
2023/02/25 04:24:34;;;;;;;2.73;0.90;;;;;;;2.78;100.00;98992.00;4973262;28;20554;-71
2023/02/25 04:27:00;;;;;;;0.27;0.27;;;;;;;2.76;100.00;98986.91;4973554;28;20256;-70
2023/02/25 04:29:27;;;;;;;0.63;0.63;;;;;;;2.73;100.00;98992.84;4973734;28;20224;-71
2023/02/25 04:31:52;;;;;;;3.30;0.97;;;;;;;2.73;100.00;99000.94;4973444;28;20777;-70
2023/02/25 04:34:18;;;;;;;1.30;1.10;;;;;;;2.72;100.00;99003.94;4973666;28;20201;-72
2023/02/25 04:36:44;;;;;;;2.83;0.60;;;;;;;2.68;100.00;98987.56;4973381;28;20225;-70
2023/02/25 04:39:11;;;;;;;2.07;0.87;;;;;;;2.67;100.00;98988.66;4973410;28;20182;-71
2023/02/25 04:41:36;;;;;;;0.50;0.40;;;;;;;2.64;100.00;98998.13;4973487;28;20174;-71
2023/02/25 04:44:03;;;;;;;0.23;0.23;;;;;;;2.63;100.00;98998.44;4973121;28;20217;-71
2023/02/25 04:46:29;;;;;;;4.23;1.20;;;;;;;2.62;100.00;99004.94;4973164;28;20248;-69
2023/02/25 04:48:55;;;;;;;0.80;0.37;;;;;;;2.62;100.00;99007.63;4973332;28;20313;-72
2023/02/25 04:51:20;;;;;;;0.30;0.30;;;;;;;2.59;100.00;99013.56;4973473;28;20638;-78
2023/02/25 04:53:45;;;;;;;3.70;0.23;;;;;;;2.58;100.00;99015.47;4973182;28;20178;-80
2023/02/25 04:56:11;;;;;;;0.00;0.00;;;;;;;2.61;100.00;99011.41;4974390;28;20719;-78
2023/02/25 04:58:37;;;;;;;3.07;0.83;;;;;;;2.61;100.00;99011.41;4974329;28;20182;-79
2023/02/25 05:01:05;;;;;;;0.20;0.20;;;;;;;2.58;100.00;99009.28;4972552;28;20256;-79
2023/02/25 05:03:31;;;;;;;0.33;0.33;;;;;;;2.57;100.00;99008.50;4972741;28;20205;-78
2023/02/25 05:05:57;;;;;;;1.07;0.97;;;;;;;2.57;100.00;99002.28;4972855;28;20661;-78
2023/02/25 05:08:22;;;;;;;4.27;0.30;;;;;;;2.56;100.00;99009.59;4971505;28;20205;-78
2023/02/25 05:10:48;;;;;;;1.00;0.20;;;;;;;2.51;100.00;99008.88;4972949;28;20174;-80
2023/02/25 05:13:14;;;;;;;37.57;2.83;;;;;;;2.51;100.00;99012.38;4972694;28;20186;-80
2023/02/25 05:15:39;;;;;;;0.67;0.60;;;;;;;2.48;100.00;99007.56;4972579;28;20766;-79
2023/02/25 05:18:04;;;;;;;1.03;0.43;;;;;;;2.46;100.00;99007.06;4972791;28;20694;-78
2023/02/25 05:20:30;;;;;;;2.27;0.50;;;;;;;2.47;100.00;98997.09;4972685;28;20178;-79
2023/02/25 05:22:55;;;;;;;0.00;0.00;;;;;;;2.49;100.00;99005.66;4972875;28;20182;-79
2023/02/25 05:25:20;;;;;;;2.43;0.30;;;;;;;2.46;100.00;98998.16;4972942;28;20170;-80
2023/02/25 05:27:46;;;;;;;0.40;0.40;;;;;;;2.43;100.00;99010.31;4972831;28;20178;-80
2023/02/25 05:30:12;;;;;;;0.03;0.03;;;;;;;2.40;100.00;99019.00;4972650;28;20169;-79
2023/02/25 05:32:37;;;;;;;2.77;0.30;;;;;;;2.38;100.00;99015.81;4972622;28;20634;-78
2023/02/25 05:35:04;;;;;;;0.20;0.20;;;;;;;2.33;100.00;99019.38;4972049;28;20211;-79
2023/02/25 05:37:32;;;;;;;2.40;0.80;;;;;;;2.31;100.00;99013.47;4972401;28;20217;-78
2023/02/25 05:39:57;;;;;;;0.00;0.00;;;;;;;2.28;100.00;99021.34;4972509;28;20189;-78
2023/02/25 05:42:23;;;;;;;0.30;0.10;;;;;;;2.27;100.00;99015.16;4972494;28;20177;-79
2023/02/25 05:44:48;;;;;;;0.73;0.50;;;;;;;2.27;100.00;99019.72;4972172;28;20685;-81
2023/02/25 05:47:14;;;;;;;0.63;0.63;;;;;;;2.27;100.00;99022.44;4972450;28;20170;-80
2023/02/25 05:49:41;;;;;;;5.20;0.73;;;;;;;2.25;100.00;99030.00;4972263;28;20174;-79
2023/02/25 05:52:06;;;;;;;0.00;0.00;;;;;;;2.25;100.00;99030.81;4972308;28;20194;-80
2023/02/25 05:54:31;;;;;;;1.70;0.97;;;;;;;2.26;100.00;99040.47;4972135;28;20257;-80
2023/02/25 05:56:56;;;;;;;0.87;0.87;;;;;;;2.25;100.00;99048.88;4972237;28;20377;-79
2023/02/25 05:59:22;;;;;;;0.00;0.00;;;;;;;2.22;100.00;99042.16;4972175;28;20634;-78
2023/02/25 06:01:47;;;;;;;0.83;0.40;;;;;;;2.23;100.00;99062.63;4972244;28;20317;-76
2023/02/25 06:04:12;;;;;;;0.40;0.40;;;;;;;2.23;100.00;99059.94;4971940;28;20220;-81
2023/02/25 06:06:37;;;;;;;0.57;0.30;;;;;;;2.24;100.00;99066.13;4972083;28;20181;-79
2023/02/25 06:09:08;;;;;;;3.80;0.57;;;;;;;2.21;100.00;99058.63;4972100;28;20313;-80
2023/02/25 06:11:34;;;;;;;0.87;0.80;;;;;;;2.20;100.00;99063.22;4972049;28;20169;-79
2023/02/25 06:13:59;;;;;;;0.00;0.00;;;;;;;2.18;100.00;99070.78;4971465;28;20186;-77
2023/02/25 06:16:30;;;;;;;1.10;0.50;;;;;;;2.17;100.00;99074.56;4971826;28;20181;-78
2023/02/25 06:18:56;;;;;;;2.00;0.50;;;;;;;2.15;100.00;99095.59;4971983;28;20200;-78
2023/02/25 06:21:21;;;;;;;5.30;0.63;;;;;;;2.14;100.00;99085.91;4971870;28;20182;-81
2023/02/25 06:23:49;;;;;;;0.90;0.43;;;;;;;2.15;100.00;99103.66;4971568;28;20709;-79
2023/02/25 06:26:14;;;;;;;0.00;0.00;;;;;;;2.16;99.26;99101.78;4971864;28;20270;-80
2023/02/25 06:28:40;;;;;;;0.00;0.00;;;;;;;2.21;99.50;99104.44;4971779;28;20273;-79
2023/02/25 06:31:07;;;;;;;0.10;0.10;;;;;;;2.14;99.48;99115.53;4971866;28;20204;-80
2023/02/25 06:33:32;;;;;;;0.10;0.10;;;;;;;2.14;98.62;99115.53;4971739;28;20201;-80
2023/02/25 06:35:58;;;;;;;0.30;0.30;;;;;;;2.04;97.08;99134.53;4971639;28;20193;-80
2023/02/25 06:38:23;;;;;;;0.90;0.10;;;;;;;2.03;96.19;99141.03;4971971;28;20174;-78
2023/02/25 06:40:49;;;;;;;12.33;5.83;;;;;;;1.97;94.43;99134.06;4971731;28;20184;-79
2023/02/25 06:43:15;;;;;;;0.40;0.03;;;;;;;1.92;93.45;99150.28;4971631;28;20731;-79
2023/02/25 06:45:40;;;;;;;0.10;0.10;;;;;;;1.89;93.66;99153.56;4971545;28;20182;-78
2023/02/25 06:48:06;;;;;;;0.20;0.10;;;;;;;1.97;94.24;99155.63;4971933;28;20178;-79
2023/02/25 06:50:31;;;;;;;0.00;0.00;;;;;;;1.92;93.94;99169.94;4971788;28;20669;-80
2023/02/25 06:52:58;;;;;;;1.20;1.17;;;;;;;1.93;94.19;99178.81;4971731;28;20181;-78
2023/02/25 06:55:23;;;;;;;0.00;0.00;;;;;;;1.97;94.05;99172.56;4971536;28;20649;-80
2023/02/25 06:57:48;;;;;;;0.00;0.00;;;;;;;1.96;94.46;99176.38;4971562;28;20260;-80
2023/02/25 07:00:14;;;;;;;0.27;0.20;;;;;;;1.98;94.31;99184.16;4971570;28;20181;-78
2023/02/25 07:02:39;;;;;;;0.03;0.00;;;;;;;1.99;93.79;99186.56;4971607;28;20229;-80
2023/02/25 07:05:05;;;;;;;0.20;0.20;;;;;;;2.01;93.08;99188.97;4971440;28;20546;-80
2023/02/25 07:07:31;;;;;;;0.00;0.00;;;;;;;1.99;93.08;99180.38;4971493;28;20178;-80
2023/02/25 07:09:56;;;;;;;0.07;0.07;;;;;;;1.96;93.12;99183.63;4971628;28;20182;-79
2023/02/25 07:12:22;;;;;;;0.00;0.00;;;;;;;1.95;92.99;99196.31;4971573;28;20178;-80
2023/02/25 07:14:48;;;;;;;0.10;0.10;;;;;;;1.99;92.13;99197.34;4971502;28;20181;-78
2023/02/25 07:17:13;;;;;;;0.10;0.10;;;;;;;1.96;91.65;99197.09;4970073;28;20182;-80
2023/02/25 07:19:38;;;;;;;0.30;0.30;;;;;;;1.97;91.88;99214.88;4971500;28;20271;-79
2023/02/25 07:22:04;;;;;;;3.70;0.10;;;;;;;1.99;91.49;99210.00;4971446;28;20273;-78
2023/02/25 07:24:30;;;;;;;0.10;0.10;;;;;;;1.98;91.97;99225.34;4971500;28;20213;-77
2023/02/25 07:26:55;;;;;;;0.10;0.10;;;;;;;1.97;92.06;99217.56;4973880;28;20540;-78
2023/02/25 07:29:21;;;;;;;0.60;0.60;;;;;;;1.93;91.51;99220.03;4975237;28;20680;-79
2023/02/25 07:31:46;;;;;;;0.00;0.00;;;;;;;1.99;90.76;99229.66;4973623;28;20178;-80
2023/02/25 07:34:13;;;;;;;0.00;0.00;;;;;;;2.04;90.17;99221.53;4974523;28;20261;-79
2023/02/25 07:36:39;;;;;;;0.00;0.00;;;;;;;2.03;89.12;99229.91;4974659;28;20201;-77
2023/02/25 07:39:05;;;;;;;0.00;0.00;;;;;;;2.03;88.89;99229.91;4974657;28;20178;-79
2023/02/25 07:41:31;;;;;;;0.60;0.60;;;;;;;2.02;89.11;99234.47;4974596;28;20658;-77
2023/02/25 07:43:56;;;;;;;0.00;0.00;;;;;;;2.01;89.63;99256.28;4974464;28;20244;-80
2023/02/25 07:46:22;;;;;;;0.00;0.00;;;;;;;1.99;90.22;99253.88;4974440;28;20182;-79
2023/02/25 07:48:47;;;;;;;0.00;0.00;;;;;;;1.92;90.94;99255.31;4974519;28;20177;-78
2023/02/25 07:51:20;;;;;;;0.00;0.00;;;;;;;1.91;90.55;99269.88;4974446;28;20170;-78
2023/02/25 07:53:47;;;;;;;0.63;0.53;;;;;;;1.90;91.00;99262.88;4974482;28;20238;-79
2023/02/25 07:56:13;;;;;;;0.00;0.00;;;;;;;1.93;91.19;99257.72;4974058;28;20649;-79
2023/02/25 07:58:39;;;;;;;0.57;0.57;;;;;;;1.96;91.63;99275.22;4974307;28;20253;-80
2023/02/25 08:01:18;;;;;;;0.00;0.00;;;;;;;1.97;91.58;99277.63;4974356;28;20269;-79
2023/02/25 08:03:46;;;;;;;0.00;0.00;;;;;;;2.01;91.23;99280.53;4974135;28;20209;-79
2023/02/25 08:06:12;;;;;;;0.50;0.40;;;;;;;2.06;90.88;99280.50;4974268;28;20666;-78
2023/02/25 08:08:37;;;;;;;0.00;0.00;;;;;;;2.04;89.80;99286.19;4974251;28;20260;-78
2023/02/25 08:11:07;;;;;;;0.00;0.00;;;;;;;2.06;89.39;99283.19;4974162;28;20264;-78
2023/02/25 08:13:33;;;;;;;0.30;0.20;;;;;;;2.05;88.94;99277.00;4973770;28;20182;-80
2023/02/25 08:15:58;;;;;;;0.03;0.03;;;;;;;2.14;88.88;99284.47;4974053;28;20185;-83
2023/02/25 08:18:23;;;;;;;0.10;0.10;;;;;;;2.10;88.69;99284.22;4974006;28;20178;-83
2023/02/25 08:20:49;;;;;;;0.27;0.23;;;;;;;2.21;88.34;99287.63;4974004;28;20305;-79
2023/02/25 08:23:14;;;;;;;0.00;0.00;;;;;;;2.24;87.86;99282.47;4974167;28;20661;-79
2023/02/25 08:25:39;;;;;;;0.00;0.00;;;;;;;2.29;87.41;99281.63;4973871;28;20173;-84
2023/02/25 08:28:05;;;;;;;0.20;0.20;;;;;;;2.32;87.57;99276.47;4973840;28;20564;-83
2023/02/25 08:30:30;;;;;;;0.10;0.10;;;;;;;2.22;86.22;99276.56;4973657;28;20233;-81
2023/02/25 08:32:56;;;;;;;0.53;0.20;;;;;;;2.11;85.78;99269.69;4973805;28;20177;-79
2023/02/25 08:35:25;;;;;;;0.97;0.97;;;;;;;2.19;85.84;99276.34;4973309;28;20213;-82
2023/02/25 08:37:51;;;;;;;0.00;0.00;;;;;;;2.25;85.73;99276.00;4973511;28;20178;-84
2023/02/25 08:40:17;;;;;;;0.00;0.00;;;;;;;2.37;85.42;99279.13;4973571;28;20177;-82
2023/02/25 08:42:42;;;;;;;0.10;0.10;;;;;;;2.42;84.49;99269.34;4973542;28;20180;-82
2023/02/25 08:45:09;;;;;;;0.40;0.40;;;;;;;2.45;84.59;99277.66;4973322;28;20288;-79
2023/02/25 08:47:34;;;;;;;0.17;0.17;;;;;;;2.43;83.89;99266.38;4973478;28;20181;-80
2023/02/25 08:50:00;;;;;;;0.10;0.10;;;;;;;2.59;84.10;99280.47;4973409;28;20170;-83
2023/02/25 08:52:32;;;;;;;0.00;0.00;;;;;;;2.65;84.17;99277.44;4973651;28;20248;-79
2023/02/25 08:54:57;;;;;;;0.00;0.00;;;;;;;2.74;83.46;99271.41;4973131;28;20668;-78
2023/02/25 08:57:25;;;;;;;0.20;0.17;;;;;;;2.78;82.53;99286.75;4973380;28;20178;-77
2023/02/25 08:59:50;;;;;;;3.97;0.53;;;;;;;2.75;80.62;99273.00;4973351;28;20700;-78
2023/02/25 09:02:16;;;;;;;0.47;0.10;;;;;;;2.74;80.08;99283.00;4971982;28;20170;-77
2023/02/25 09:04:41;;;;;;;0.03;0.00;;;;;;;2.55;79.29;99265.97;4972996;28;20260;-74
2023/02/25 09:07:07;;;;;;;2.23;0.67;;;;;;;2.61;79.58;99283.72;4973041;28;20174;-77
2023/02/25 09:09:33;;;;;;;0.27;0.27;;;;;;;2.54;78.23;99280.53;4973243;28;20178;-74
2023/02/25 09:11:59;;;;;;;0.43;0.43;;;;;;;2.71;79.15;99288.16;4973330;28;20177;-76
2023/02/25 09:14:25;;;;;;;0.60;0.30;;;;;;;2.85;79.58;99303.38;4972949;28;20167;-77
2023/02/25 09:16:50;;;;;;;0.00;0.00;;;;;;;2.89;78.65;99296.31;4972568;28;20185;-77
2023/02/25 09:19:17;;;;;;;0.10;0.10;;;;;;;2.90;79.05;99297.91;4973006;28;20257;-77
2023/02/25 09:21:49;;;;;;;0.00;0.00;;;;;;;2.91;78.68;99296.84;4973009;28;20524;-72
2023/02/25 09:24:15;;;;;;;0.20;0.20;;;;;;;2.88;78.34;99305.47;4973828;28;20236;-70
2023/02/25 09:26:41;;;;;;;0.10;0.03;;;;;;;2.87;78.22;99308.47;4976087;28;20189;-70
2023/02/25 09:29:07;;;;;;;0.50;0.30;;;;;;;2.94;77.98;99309.72;4974207;28;20178;-70
2023/02/25 09:31:35;;;;;;;0.10;0.10;;;;;;;2.84;77.16;99309.84;4973141;28;20206;-71
2023/02/25 09:34:03;;;;;;;0.27;0.20;;;;;;;2.77;77.69;99320.19;4972431;28;20713;-70
2023/02/25 09:36:29;;;;;;;0.50;0.50;;;;;;;2.67;77.50;99314.91;4972680;28;20189;-70
2023/02/25 09:38:56;;;;;;;0.10;0.10;;;;;;;2.61;77.73;99329.56;4972665;28;20200;-70
2023/02/25 09:41:22;;;;;;;0.23;0.03;;;;;;;2.55;76.98;99319.88;4972614;28;20186;-71
2023/02/25 09:43:48;;;;;;;0.27;0.27;;;;;;;2.41;76.38;99330.53;4971037;28;20205;-71
2023/02/25 09:46:17;;;;;;;0.50;0.37;;;;;;;2.39;77.17;99335.41;4972367;28;20192;-70
2023/02/25 09:48:53;;;;;;;0.10;0.10;;;;;;;2.36;77.30;99346.78;4970538;28;20184;-70
2023/02/25 09:51:22;;;;;;;0.00;0.00;;;;;;;2.26;77.62;99350.34;4972369;28;20192;-70
2023/02/25 09:54:19;;;;;;;4.53;0.23;;;;;;;2.21;78.64;99361.19;4972298;28;20217;-71
2023/02/25 09:56:45;;;;;;;2.33;0.00;;;;;;;2.17;79.38;99364.72;4958247;28;20197;-70
2023/02/25 09:59:14;;;;;;;0.00;0.00;;;;;;;2.27;80.31;99375.41;4972051;28;20173;-70
2023/02/25 10:02:00;;;;;;;0.00;0.00;;;;;;;2.39;81.19;99373.97;4972303;28;20178;-70
2023/02/25 10:04:46;;;;;;;0.00;0.00;;;;;;;2.48;81.44;99384.13;4951207;28;20678;-70
2023/02/25 10:07:21;;;;;;;0.00;0.00;;;;;;;2.37;80.87;99386.91;4972202;28;20205;-71
2023/02/25 10:09:54;;;;;;;0.00;0.00;;;;;;;2.32;80.93;99389.66;4972214;28;20242;-70
2023/02/25 10:12:28;;;;;;;0.00;0.00;;;;;;;2.38;81.31;99399.31;4972214;28;20713;-70
2023/02/25 10:15:45;;;;;;;4.00;0.37;;;;;;;2.41;82.06;99395.22;4972017;28;20173;-71
2023/02/25 10:18:13;;;;;;;0.00;0.00;;;;;;;2.49;82.34;99412.69;4930843;29;20229;-69
2023/02/25 10:20:46;;;;;;;0.40;0.40;;;;;;;2.39;82.31;99408.19;4930946;29;20186;-73
2023/02/25 10:23:46;;;;;;;0.17;0.13;;;;;;;2.35;82.21;99416.03;4945897;28;20545;-69
2023/02/25 10:26:24;;;;;;;0.10;0.03;;;;;;;2.44;82.81;99424.31;4951397;29;20178;-69
2023/02/25 10:28:58;;;;;;;0.13;0.13;;;;;;;2.55;83.20;99422.34;4952565;28;20217;-69
2023/02/25 10:31:24;;;;;;;0.00;0.00;;;;;;;2.65;83.34;99431.16;4959085;28;20236;-70
2023/02/25 10:33:56;;;;;;;0.00;0.00;;;;;;;2.76;83.39;99437.25;4971683;28;20269;-69
2023/02/25 10:36:28;;;;;;;0.60;0.30;;;;;;;2.46;83.97;99441.03;4971531;28;20197;-70
2023/02/25 10:38:54;;;;;;;0.00;0.00;;;;;;;2.59;84.89;99448.44;4970503;28;20166;-68
2023/02/25 10:41:22;;;;;;;0.00;0.00;;;;;;;2.23;84.29;99444.44;4971845;28;20182;-69
2023/02/25 10:43:49;;;;;;;0.00;0.00;;;;;;;2.43;85.31;99457.75;4971812;28;20198;-69
2023/02/25 10:46:37;;;;;;;0.00;0.00;;;;;;;2.50;84.98;99452.03;4971662;28;20181;-70
2023/02/25 10:49:14;;;;;;;0.00;0.00;;;;;;;2.60;84.66;99460.84;4960997;28;20266;-70
2023/02/25 10:51:59;;;;;;;0.00;0.00;;;;;;;2.47;84.29;99450.72;4952429;28;20193;-68
2023/02/25 10:54:24;;;;;;;0.60;0.10;;;;;;;2.63;85.04;99462.97;4952514;28;20233;-69
2023/02/25 10:56:52;;;;;;;6.60;1.33;;;;;;;2.56;84.28;99453.59;4953222;28;20178;-69
2023/02/25 10:59:40;;;;;;;0.10;0.10;;;;;;;2.71;84.34;99464.25;4973152;28;20177;-70
2023/02/25 11:02:21;;;;;;;0.00;0.00;;;;;;;2.84;84.44;99450.09;4971336;28;20225;-69
2023/02/25 11:04:48;;;;;;;0.00;0.00;;;;;;;2.69;83.12;99456.44;4956042;28;20225;-69
2023/02/25 11:07:33;;;;;;;0.13;0.10;;;;;;;2.64;83.16;99456.50;4955828;28;20680;-69
2023/02/25 11:10:15;;;;;;;0.10;0.10;;;;;;;2.91;84.11;99479.47;4955902;28;20577;-69
2023/02/25 11:12:48;;;;;;;0.13;0.13;;;;;;;3.09;83.91;99475.22;4955889;28;20174;-69
2023/02/25 11:15:25;;;;;;;0.00;0.00;;;;;;;2.83;83.59;99475.47;4955589;28;20646;-69
2023/02/25 11:17:52;;;;;;;0.00;0.00;;;;;;;2.46;86.17;99478.78;4955876;28;20528;-69
2023/02/25 11:20:24;;;;;;;0.20;0.10;;;;;;;2.26;89.00;99492.38;4955535;28;20451;-70
2023/02/25 11:22:55;;;;;;;1.03;0.37;;;;;;;2.01;91.88;99499.53;4955686;28;20554;-69
2023/02/25 11:25:36;;;;;;;0.00;0.00;;;;;;;2.15;94.45;99497.00;4955556;28;20417;-68
2023/02/25 11:28:02;;;;;;;0.10;0.10;;;;;;;2.05;93.61;99491.72;4955580;28;20757;-69
2023/02/25 11:30:37;;;;;;;0.00;0.00;;;;;;;2.28;93.11;99496.41;4955616;28;20166;-69
2023/02/25 11:33:10;;;;;;;1.10;1.10;;;;;;;2.34;91.82;99489.91;4955510;28;20170;-69
2023/02/25 11:35:38;;;;;;;0.70;0.10;;;;;;;2.45;90.93;99485.22;4955162;28;20209;-69
2023/02/25 11:38:15;;;;;;;0.00;0.00;;;;;;;2.77;89.23;99492.00;4955403;28;20181;-72
2023/02/25 11:40:43;;;;;;;0.10;0.10;;;;;;;3.12;86.40;99482.75;4955424;28;20218;-73
2023/02/25 11:43:21;;;;;;;0.10;0.10;;;;;;;3.14;82.82;99470.56;4955215;28;20254;-72
2023/02/25 11:45:52;;;;;;;5.40;0.10;;;;;;;3.18;81.58;99470.78;4955092;28;20631;-70